Cantwell, Alaska
Current Conditions -  °F | °C
As of 4:36 PM on Friday 19 Dec 2014 (Local Time) from PAIN Reporting Station
Overcast Overcast  
Wind Chill:   Ceiling: 12000
Heat Index:   Visibility: 10mi
Dew Point:   Wind: 0mph
Humidity: 92%   Direction: NA
Pressure: 29.16"   Gusts: NA
Location:  63.39°N, 148.95°W
Report Text: PAIN 200136Z AUTO 00000KT 10SM OVC120 M17/M18 A2916 RMK AO1
Loading
Personal Weather Stations






























Interactive Weather Map New forecast layout! Learn more

10-Day Weather Forecast

Advertisements
Track Severe Weather on mobile